Time;durP1;ratioP1;P1;durP2;ratioP2;P2;SDS_P1;SDS_P2;PMS_P1;PMS_P2;Temp;Humidity;BMP_temperature;BMP_pressure;BME280_temperature;BME280_humidity;BME280_pressure;Samples;Min_cycle;Max_cycle;Signal;HPM_P1;HPM_P2
2022/06/11 00:00:53;;;;;;;11.67;6.00;;;15.70;99.90;;;;;;5056289;28;20444;-68
2022/06/11 00:03:20;;;;;;;7.37;6.40;;;15.70;99.90;;;;;;5069759;28;21006;-68
2022/06/11 00:05:45;;;;;;;7.27;5.20;;;15.70;99.90;;;;;;5067449;28;20417;-68
2022/06/11 00:08:11;;;;;;;6.57;5.70;;;15.60;99.90;;;;;;5066993;28;20494;-68
2022/06/11 00:10:38;;;;;;;7.43;5.90;;;15.60;99.90;;;;;;5067798;28;20209;-68
2022/06/11 00:13:05;;;;;;;6.50;5.90;;;15.50;99.90;;;;;;5068208;28;20803;-67
2022/06/11 00:15:31;;;;;;;6.33;5.00;;;15.50;99.90;;;;;;5067475;28;20499;-67
2022/06/11 00:17:57;;;;;;;7.20;6.50;;;15.50;99.90;;;;;;5067970;28;20564;-68
2022/06/11 00:20:24;;;;;;;10.43;5.63;;;15.50;99.90;;;;;;5067210;28;20623;-67
2022/06/11 00:22:51;;;;;;;5.50;5.00;;;15.40;99.90;;;;;;5067755;28;20425;-67
2022/06/11 00:25:17;;;;;;;8.40;5.23;;;15.40;99.90;;;;;;5068090;28;20477;-68
2022/06/11 00:27:44;;;;;;;10.70;5.60;;;15.40;99.90;;;;;;5068245;28;20979;-67
2022/06/11 00:30:11;;;;;;;7.87;4.87;;;15.30;99.90;;;;;;5068628;28;20417;-68
2022/06/11 00:32:38;;;;;;;6.57;5.40;;;15.30;99.90;;;;;;5067549;28;20436;-67
2022/06/11 00:35:06;;;;;;;7.53;5.77;;;15.30;99.90;;;;;;5068090;28;20428;-67
2022/06/11 00:37:32;;;;;;;9.03;6.77;;;15.20;99.90;;;;;;5067005;28;20550;-67
2022/06/11 00:39:58;;;;;;;9.67;6.40;;;15.20;99.90;;;;;;5066959;28;20877;-67
2022/06/11 00:42:28;;;;;;;8.60;5.60;;;15.20;99.90;;;;;;5067604;28;20459;-67
2022/06/11 00:45:15;;;;;;;8.50;5.70;;;15.20;99.90;;;;;;5068012;28;20865;-67
2022/06/11 00:47:44;;;;;;;6.27;5.67;;;15.10;99.90;;;;;;5066851;28;20849;-68
2022/06/11 00:50:37;;;;;;;7.20;5.40;;;15.10;99.90;;;;;;5067423;28;20484;-68
2022/06/11 00:53:34;;;;;;;9.90;5.43;;;15.10;99.90;;;;;;5063617;28;21039;-68
2022/06/11 00:56:03;;;;;;;8.50;6.03;;;15.10;99.90;;;;;;5050418;28;20477;-68
2022/06/11 00:58:35;;;;;;;5.97;5.40;;;15.10;99.90;;;;;;5066809;28;20872;-68
2022/06/11 01:01:01;;;;;;;6.23;5.37;;;15.00;99.90;;;;;;5061924;28;20418;-68
2022/06/11 01:03:36;;;;;;;7.30;5.13;;;14.90;99.90;;;;;;5067165;28;20519;-68
2022/06/11 01:06:29;;;;;;;12.17;5.57;;;14.90;99.90;;;;;;5064778;28;20570;-68
2022/06/11 01:09:18;;;;;;;11.10;6.10;;;14.90;99.90;;;;;;5061345;28;20404;-68
2022/06/11 01:11:55;;;;;;;6.30;5.80;;;14.90;99.90;;;;;;5071734;28;20440;-68
2022/06/11 01:14:24;;;;;;;12.37;5.57;;;14.80;99.90;;;;;;5071820;28;20799;-68
2022/06/11 01:17:19;;;;;;;9.13;5.70;;;14.70;99.90;;;;;;5070331;28;20423;-67
2022/06/11 01:20:09;;;;;;;8.60;5.77;;;14.80;99.90;;;;;;5071246;28;20408;-68
2022/06/11 01:23:25;;;;;;;8.90;6.60;;;14.70;99.90;;;;;;5071363;28;20927;-67
2022/06/11 01:26:12;;;;;;;9.37;6.77;;;14.70;1.00;;;;;;4990974;28;20450;-68
2022/06/11 01:28:56;;;;;;;9.20;6.00;;;14.70;1.00;;;;;;5071751;28;20409;-68
2022/06/11 01:31:38;;;;;;;8.27;6.23;;;14.70;1.00;;;;;;5085631;22;20484;-66
2022/06/11 01:34:22;;;;;;;10.10;6.40;;;14.60;1.00;;;;;;5064711;28;20788;-67
2022/06/11 01:36:52;;;;;;;10.20;6.97;;;14.60;1.00;;;;;;5070915;28;20499;-65
2022/06/11 01:39:28;;;;;;;8.70;6.47;;;14.50;1.00;;;;;;5069743;28;20481;-68
2022/06/11 01:42:12;;;;;;;9.10;7.00;;;14.50;1.00;;;;;;5046042;28;20995;-67
2022/06/11 01:44:43;;;;;;;12.47;6.33;;;14.50;1.00;;;;;;5070740;28;21296;-66
2022/06/11 01:47:11;;;;;;;7.03;5.50;;;14.40;1.00;;;;;;5070156;28;20519;-65
2022/06/11 01:49:45;;;;;;;7.73;5.83;;;14.50;1.00;;;;;;5069964;28;20520;-66
2022/06/11 01:52:46;;;;;;;9.07;6.47;;;14.50;1.00;;;;;;5070429;28;20416;-68
2022/06/11 01:55:24;;;;;;;9.53;6.60;;;14.40;1.00;;;;;;5006991;28;20493;-67
2022/06/11 01:58:26;;;;;;;6.97;6.10;;;14.40;1.00;;;;;;5057143;28;20529;-67
2022/06/11 02:01:03;;;;;;;9.37;6.93;;;14.30;1.00;;;;;;5069847;28;20432;-67
2022/06/11 02:03:43;;;;;;;7.10;5.53;;;14.30;1.00;;;;;;5073299;28;20451;-66
2022/06/11 02:06:33;;;;;;;6.43;5.67;;;14.30;1.00;;;;;;5065381;28;20408;-66
2022/06/11 02:09:28;;;;;;;6.40;5.87;;;14.20;1.00;;;;;;5054861;28;20456;-66
2022/06/11 02:12:15;;;;;;;6.53;5.93;;;14.20;1.00;;;;;;5070560;28;20503;-68
2022/06/11 02:14:55;;;;;;;8.20;6.47;;;14.20;1.00;;;;;;5069964;28;20486;-66
2022/06/11 02:17:25;;;;;;;8.50;5.70;;;14.10;1.00;;;;;;5069512;28;20467;-67
2022/06/11 02:20:03;;;;;;;10.03;5.67;;;14.10;1.00;;;;;;5069362;28;20490;-67
2022/06/11 02:22:41;;;;;;;7.87;5.50;;;14.10;1.00;;;;;;5071397;28;20473;-66
2022/06/11 02:25:20;;;;;;;7.33;5.47;;;14.10;1.00;;;;;;5065428;28;20833;-67
2022/06/11 02:27:49;;;;;;;9.37;6.00;;;14.00;1.00;;;;;;5071843;28;20416;-66
2022/06/11 02:30:18;;;;;;;15.90;5.20;;;14.00;1.00;;;;;;5069709;28;20449;-68
2022/06/11 02:32:44;;;;;;;8.70;6.20;;;14.00;1.00;;;;;;5069568;28;20499;-68
2022/06/11 02:35:13;;;;;;;10.50;6.47;;;14.00;1.00;;;;;;5069766;28;20527;-67
2022/06/11 02:37:44;;;;;;;20.10;6.33;;;13.90;1.00;;;;;;5069128;28;20455;-68
2022/06/11 02:40:15;;;;;;;11.67;5.50;;;13.90;1.00;;;;;;5069529;28;20477;-66
2022/06/11 02:42:41;;;;;;;6.30;5.23;;;13.90;1.00;;;;;;5068550;28;20912;-66
2022/06/11 02:45:10;;;;;;;7.70;5.80;;;13.90;1.00;;;;;;5069697;28;20454;-68
2022/06/11 02:47:37;;;;;;;6.87;5.10;;;13.90;1.00;;;;;;5068483;28;20877;-66
2022/06/11 02:50:03;;;;;;;7.30;5.40;;;13.90;1.00;;;;;;5069215;28;20444;-67
2022/06/11 02:52:29;;;;;;;6.17;5.57;;;13.80;1.00;;;;;;5069285;28;20439;-68
2022/06/11 02:54:55;;;;;;;7.10;6.40;;;13.80;1.00;;;;;;5069185;28;20413;-68
2022/06/11 02:57:27;;;;;;;9.90;6.17;;;13.80;1.00;;;;;;5068671;28;20198;-68
2022/06/11 02:59:54;;;;;;;11.00;6.23;;;13.90;1.00;;;;;;5068345;28;20277;-65
2022/06/11 03:02:22;;;;;;;7.43;5.87;;;13.80;1.00;;;;;;5071580;28;20469;-66
2022/06/11 03:04:49;;;;;;;6.50;4.80;;;13.70;1.00;;;;;;5069462;28;20405;-68
2022/06/11 03:07:15;;;;;;;15.43;5.67;;;13.70;1.00;;;;;;5068392;28;20424;-68
2022/06/11 03:09:42;;;;;;;6.20;5.13;;;13.70;1.00;;;;;;5068350;28;20523;-68
2022/06/11 03:12:10;;;;;;;7.03;4.27;;;13.60;1.00;;;;;;5069448;28;20416;-68
2022/06/11 03:14:36;;;;;;;5.53;4.47;;;13.60;99.90;;;;;;5069124;28;20428;-67
2022/06/11 03:17:02;;;;;;;7.27;4.93;;;13.60;40.60;;;;;;5068624;28;20811;-67
2022/06/11 03:19:27;;;;;;;6.77;5.30;;;13.60;34.90;;;;;;5068708;28;20456;-68
2022/06/11 03:21:55;;;;;;;7.40;5.30;;;13.60;35.30;;;;;;5068811;28;20190;-66
2022/06/11 03:24:22;;;;;;;6.23;5.00;;;13.60;32.20;;;;;;5068911;28;20166;-67
2022/06/11 03:26:48;;;;;;;6.80;4.90;;;13.60;63.80;;;;;;5068565;28;20452;-66
2022/06/11 03:29:15;;;;;;;10.40;5.67;;;13.50;99.90;;;;;;5068517;28;20477;-67
2022/06/11 03:31:42;;;;;;;5.60;5.10;;;13.50;99.90;;;;;;5068337;28;20535;-67
2022/06/11 03:34:08;;;;;;;5.50;5.00;;;13.60;99.90;;;;;;5068868;28;20584;-69
2022/06/11 03:36:34;;;;;;;11.47;5.83;;;13.60;99.90;;;;;;5068248;28;20568;-67
2022/06/11 03:39:00;;;;;;;8.13;5.93;;;13.60;99.90;;;;;;5067317;28;20194;-65
2022/06/11 03:41:27;;;;;;;6.80;5.77;;;13.70;99.90;;;;;;5068606;28;20209;-68
2022/06/11 03:43:53;;;;;;;9.23;7.33;;;13.80;21.70;;;;;;5068623;28;20631;-67
2022/06/11 03:46:20;;;;;;;8.47;5.93;;;13.90;1.00;;;;;;5068054;28;20416;-63
2022/06/11 03:48:46;;;;;;;22.70;7.87;;;14.10;1.00;;;;;;5065684;28;20285;-67
2022/06/11 03:51:12;;;;;;;7.60;5.90;;;14.20;1.00;;;;;;5067813;28;20440;-66
2022/06/11 03:53:40;;;;;;;10.20;5.23;;;14.30;1.00;;;;;;5050109;28;20571;-69
2022/06/11 03:56:08;;;;;;;18.13;6.13;;;14.50;1.00;;;;;;5062233;28;20416;-66
2022/06/11 03:58:35;;;;;;;13.57;6.30;;;14.60;1.00;;;;;;5067873;28;20479;-68
2022/06/11 04:01:16;;;;;;;6.20;5.60;;;14.80;1.00;;;;;;5063793;28;20447;-66
2022/06/11 04:03:49;;;;;;;9.23;6.17;;;15.00;99.90;;;;;;5068501;28;20960;-68
2022/06/11 04:06:18;;;;;;;11.47;5.17;;;15.20;99.90;;;;;;5068188;28;20414;-68
2022/06/11 04:08:44;;;;;;;8.30;5.13;;;15.40;99.90;;;;;;5067422;28;20420;-68
2022/06/11 04:11:11;;;;;;;7.23;5.17;;;15.60;99.90;;;;;;5071807;28;20471;-68
2022/06/11 04:13:39;;;;;;;9.77;5.30;;;15.90;99.90;;;;;;5071086;28;20174;-68
2022/06/11 04:16:06;;;;;;;7.07;5.17;;;16.10;99.90;;;;;;5070584;28;20424;-67
2022/06/11 04:18:38;;;;;;;6.40;4.73;;;16.10;99.90;;;;;;5069903;28;20538;-66
2022/06/11 04:21:07;;;;;;;11.77;5.50;;;16.30;99.90;;;;;;5070940;28;20433;-66
2022/06/11 04:23:33;;;;;;;6.50;5.30;;;16.60;99.90;;;;;;5068499;28;20478;-67
2022/06/11 04:26:01;;;;;;;5.87;4.40;;;16.70;99.90;;;;;;5068619;28;20763;-68
2022/06/11 04:28:29;;;;;;;11.33;5.37;;;16.80;99.90;;;;;;5049768;28;20265;-68
2022/06/11 04:30:57;;;;;;;5.10;4.10;;;17.00;99.90;;;;;;5068545;28;20479;-68
2022/06/11 04:33:23;;;;;;;6.53;5.37;;;17.30;99.90;;;;;;5065260;28;20420;-69
2022/06/11 04:35:49;;;;;;;7.20;6.27;;;17.50;99.90;;;;;;5068298;28;20424;-66
2022/06/11 04:38:17;;;;;;;10.70;5.73;;;17.30;99.90;;;;;;5066637;28;20198;-69
2022/06/11 04:40:43;;;;;;;10.13;6.53;;;17.70;99.90;;;;;;5067940;28;20467;-66
2022/06/11 04:43:09;;;;;;;6.43;5.27;;;17.90;99.90;;;;;;5068250;28;20539;-67
2022/06/11 04:45:35;;;;;;;6.80;5.93;;;17.90;99.90;;;;;;5059055;28;20444;-69
2022/06/11 04:48:01;;;;;;;10.00;6.13;;;18.10;99.90;;;;;;5072118;28;20863;-68
2022/06/11 04:50:26;;;;;;;6.80;6.20;;;18.70;99.90;;;;;;5071741;28;20215;-66
2022/06/11 04:52:52;;;;;;;7.00;6.40;;;19.20;99.90;;;;;;5071796;28;20466;-68
2022/06/11 04:55:18;;;;;;;9.07;6.13;;;19.40;99.90;;;;;;5072772;28;20178;-68
2022/06/11 04:57:45;;;;;;;7.27;6.60;;;19.50;99.90;;;;;;5071445;28;20504;-67
2022/06/11 05:00:15;;;;;;;6.70;6.10;;;19.60;99.90;;;;;;5071747;28;20194;-67
2022/06/11 05:02:41;;;;;;;9.10;5.87;;;20.00;99.90;;;;;;5072167;28;20511;-67
2022/06/11 05:05:08;;;;;;;6.80;6.10;;;20.30;99.90;;;;;;5072214;28;20750;-69
2022/06/11 05:07:34;;;;;;;12.00;6.30;;;20.60;99.90;;;;;;5071061;28;20190;-69
2022/06/11 05:10:00;;;;;;;10.27;5.73;;;21.00;99.90;;;;;;5070971;28;20904;-68
2022/06/11 05:12:26;;;;;;;6.13;5.00;;;21.20;99.90;;;;;;5071955;28;20182;-69
2022/06/11 05:14:51;;;;;;;6.53;5.83;;;21.50;99.90;;;;;;5071289;28;20619;-67
2022/06/11 05:17:18;;;;;;;8.23;5.83;;;21.70;99.90;;;;;;5070930;28;20194;-67
2022/06/11 05:19:44;;;;;;;5.50;4.83;;;21.90;99.90;;;;;;5070840;28;20178;-67
2022/06/11 05:22:09;;;;;;;7.30;5.67;;;22.20;99.90;;;;;;5064894;28;20484;-66
2022/06/11 05:24:36;;;;;;;7.93;5.90;;;22.20;99.90;;;;;;5071149;28;20185;-68
2022/06/11 05:27:07;;;;;;;8.97;5.60;;;22.70;99.90;;;;;;5072780;28;20162;-68
2022/06/11 05:30:03;;;;;;;16.93;6.23;;;23.00;99.90;;;;;;5070744;28;20468;-66
2022/06/11 05:32:33;;;;;;;6.10;5.20;;;23.40;99.90;;;;;;5066758;28;20433;-67
2022/06/11 05:35:00;;;;;;;5.87;5.27;;;23.50;99.90;;;;;;5071843;28;20426;-67
2022/06/11 05:37:26;;;;;;;8.00;6.43;;;23.30;99.90;;;;;;5066454;28;20464;-67
2022/06/11 05:39:53;;;;;;;6.63;6.03;;;22.80;99.90;;;;;;5070771;28;20443;-68
2022/06/11 05:42:21;;;;;;;7.17;6.23;;;22.90;99.90;;;;;;5053419;28;21067;-68
2022/06/11 05:44:48;;;;;;;20.50;6.80;;;22.90;99.90;;;;;;5071406;28;20751;-69
2022/06/11 05:47:17;;;;;;;6.23;5.60;;;23.00;99.90;;;;;;5062665;28;20431;-68
2022/06/11 05:49:46;;;;;;;8.00;5.80;;;23.70;99.90;;;;;;5070516;28;20452;-68
2022/06/11 05:52:16;;;;;;;17.53;6.00;;;24.40;99.90;;;;;;5070220;28;20415;-68
2022/06/11 05:54:43;;;;;;;15.77;6.63;;;25.30;99.90;;;;;;5071122;28;20420;-68
2022/06/11 05:57:14;;;;;;;11.40;6.60;;;26.00;99.90;;;;;;5070200;28;21395;-67
2022/06/11 05:59:44;;;;;;;8.20;5.93;;;26.20;99.90;;;;;;5069836;28;20431;-68
2022/06/11 06:02:13;;;;;;;14.33;6.37;;;26.60;98.10;;;;;;5071824;28;20412;-68
2022/06/11 06:04:39;;;;;;;16.53;6.87;;;27.00;95.30;;;;;;5073280;28;20416;-68
2022/06/11 06:07:06;;;;;;;6.57;5.93;;;27.50;93.00;;;;;;5070190;28;20466;-68
2022/06/11 06:09:32;;;;;;;6.67;5.67;;;27.00;88.60;;;;;;5069964;28;20954;-69
2022/06/11 06:11:58;;;;;;;9.87;5.90;;;26.50;82.60;;;;;;5071209;28;20459;-67
2022/06/11 06:14:24;;;;;;;6.33;5.50;;;26.70;79.10;;;;;;5070695;28;20215;-68
2022/06/11 06:16:49;;;;;;;9.50;6.10;;;27.60;77.40;;;;;;5069780;28;20201;-69
2022/06/11 06:19:15;;;;;;;6.40;5.80;;;28.10;73.60;;;;;;5069964;28;20200;-67
2022/06/11 06:21:41;;;;;;;7.90;5.60;;;28.80;68.20;;;;;;5069656;28;20193;-69
2022/06/11 06:24:07;;;;;;;17.43;7.20;;;29.30;63.00;;;;;;5070099;28;20173;-69
2022/06/11 06:26:33;;;;;;;6.20;5.60;;;29.50;57.40;;;;;;5070099;28;20174;-68
2022/06/11 06:28:59;;;;;;;8.00;6.70;;;29.80;52.50;;;;;;5068360;28;20180;-68
2022/06/11 06:31:25;;;;;;;8.90;6.77;;;29.90;48.50;;;;;;5069422;28;20455;-68
2022/06/11 06:33:51;;;;;;;12.87;7.40;;;30.30;45.30;;;;;;5069863;28;20412;-68
2022/06/11 06:36:17;;;;;;;7.90;5.90;;;30.80;40.80;;;;;;5069736;28;20449;-68
2022/06/11 06:38:44;;;;;;;8.10;6.40;;;31.40;36.80;;;;;;5068747;28;20221;-68
2022/06/11 06:41:11;;;;;;;17.07;6.67;;;31.10;31.30;;;;;;5069833;28;20258;-68
2022/06/11 06:43:37;;;;;;;16.93;6.70;;;31.20;28.10;;;;;;5069681;28;20634;-67
2022/06/11 06:46:03;;;;;;;24.17;6.97;;;31.60;25.40;;;;;;5069325;28;20511;-68
2022/06/11 06:48:30;;;;;;;9.90;5.97;;;31.70;22.40;;;;;;5069341;28;20172;-68
2022/06/11 06:50:56;;;;;;;12.00;5.83;;;32.30;19.90;;;;;;5068252;28;20300;-68
2022/06/11 06:53:22;;;;;;;7.43;5.70;;;32.50;26.60;;;;;;5068381;28;20269;-68
2022/06/11 06:55:48;;;;;;;6.30;5.80;;;32.90;13.90;;;;;;5069031;28;20203;-68
2022/06/11 06:58:15;;;;;;;18.63;7.00;;;33.30;10.20;;;;;;5067741;28;20587;-69
2022/06/11 07:00:42;;;;;;;7.78;6.10;;;33.50;6.90;;;;;;5068684;28;20255;-67
2022/06/11 07:03:11;;;;;;;20.92;7.53;;;33.70;4.10;;;;;;5069329;28;20181;-68
2022/06/11 07:05:36;;;;;;;8.93;5.68;;;34.10;1.40;;;;;;5069053;28;20264;-67
2022/06/11 07:08:02;;;;;;;6.32;5.72;;;34.20;1.00;;;;;;5067326;28;20181;-67
2022/06/11 07:10:28;;;;;;;6.60;5.63;;;33.30;1.00;;;;;;5068578;28;20266;-68
2022/06/11 07:12:54;;;;;;;6.07;5.32;;;32.90;1.00;;;;;;5068128;28;20178;-67
2022/06/11 07:15:20;;;;;;;7.88;6.00;;;32.30;1.00;;;;;;5069054;28;20228;-66
2022/06/11 07:17:52;;;;;;;6.55;5.80;;;32.50;1.00;;;;;;5068442;28;20628;-68
2022/06/11 07:20:23;;;;;;;6.07;5.40;;;31.90;1.00;;;;;;5066683;28;20676;-67
2022/06/11 07:23:00;;;;;;;10.83;6.57;;;32.40;1.00;;;;;;5054659;28;20701;-67
2022/06/11 07:25:27;;;;;;;6.87;6.17;;;32.80;1.00;;;;;;5051359;28;20257;-68
2022/06/11 07:28:00;;;;;;;5.80;4.77;;;32.90;1.00;;;;;;5052800;28;20170;-69
2022/06/11 07:30:28;;;;;;;5.80;4.83;;;33.30;1.00;;;;;;5061952;22;20214;-69
2022/06/11 07:33:00;;;;;;;6.20;5.23;;;34.00;1.00;;;;;;5060257;28;20180;-70
2022/06/11 07:35:25;;;;;;;12.13;6.30;;;33.30;1.00;;;;;;5057346;28;20161;-70
2022/06/11 07:37:52;;;;;;;21.13;5.70;;;33.70;1.00;;;;;;5059582;28;20182;-70
2022/06/11 07:40:18;;;;;;;10.35;4.95;;;35.00;1.00;;;;;;5053265;28;20601;-69
2022/06/11 07:42:44;;;;;;;8.02;4.38;;;35.80;1.00;;;;;;5040572;28;20170;-67
2022/06/11 07:45:10;;;;;;;8.50;3.67;;;36.60;1.00;;;;;;5021414;28;20167;-67
2022/06/11 07:47:54;;;;;;;16.00;4.38;;;36.90;1.00;;;;;;5037266;28;20281;-67
2022/06/11 07:50:32;;;;;;;6.25;4.22;;;36.50;1.00;;;;;;5020109;28;20212;-67
2022/06/11 07:52:59;;;;;;;9.07;4.15;;;37.40;1.00;;;;;;5038367;28;20170;-68
2022/06/11 07:55:26;;;;;;;5.85;4.40;;;38.00;1.00;;;;;;5038717;28;20607;-67
2022/06/11 07:57:52;;;;;;;32.20;5.95;;;37.50;1.00;;;;;;5039419;28;20360;-68
2022/06/11 08:00:25;;;;;;;5.65;3.17;;;37.60;1.00;;;;;;5041079;28;20217;-68
2022/06/11 08:02:50;;;;;;;13.90;4.53;;;37.70;1.00;;;;;;5039790;28;20167;-68
2022/06/11 08:05:16;;;;;;;4.32;3.47;;;37.70;1.00;;;;;;5040520;28;20163;-68
2022/06/11 08:07:42;;;;;;;6.07;3.13;;;37.40;1.00;;;;;;5038772;28;20193;-68
2022/06/11 08:10:09;;;;;;;9.43;4.20;;;35.50;1.00;;;;;;5061779;28;20236;-67
2022/06/11 08:12:35;;;;;;;5.38;3.63;;;35.20;1.00;;;;;;5060590;28;20188;-67
2022/06/11 08:15:01;;;;;;;14.95;4.07;;;35.40;1.00;;;;;;5060198;28;20161;-67
2022/06/11 08:17:28;;;;;;;20.67;4.00;;;36.00;1.00;;;;;;5056413;28;20219;-67
2022/06/11 08:19:54;;;;;;;40.65;7.30;;;36.80;1.00;;;;;;5057221;28;20300;-68
2022/06/11 08:22:20;;;;;;;4.47;3.67;;;37.70;1.00;;;;;;5058372;28;20165;-68
2022/06/11 08:24:47;;;;;;;8.82;3.90;;;37.20;1.00;;;;;;5058691;28;20535;-67
2022/06/11 08:27:12;;;;;;;8.00;3.65;;;36.30;1.00;;;;;;5062820;28;20176;-66
2022/06/11 08:29:38;;;;;;;3.92;3.50;;;36.80;1.00;;;;;;5066183;28;20691;-69
2022/06/11 08:32:05;;;;;;;4.82;4.32;;;36.10;1.00;;;;;;5068173;28;20190;-69
2022/06/11 08:34:35;;;;;;;3.80;3.47;;;35.00;1.00;;;;;;5052154;28;20184;-72
2022/06/11 08:37:01;;;;;;;3.65;3.33;;;32.50;1.00;;;;;;5068685;28;20166;-71
2022/06/11 08:39:27;;;;;;;3.33;3.03;;;32.80;1.00;;;;;;5068060;28;20170;-71
2022/06/11 08:41:55;;;;;;;3.85;3.33;;;31.10;1.00;;;;;;5070266;28;20193;-71
2022/06/11 08:44:21;;;;;;;3.15;2.67;;;32.40;1.00;;;;;;5069108;28;20629;-69
2022/06/11 08:46:48;;;;;;;4.20;3.50;;;33.50;1.00;;;;;;5068608;28;20180;-69
2022/06/11 08:49:22;;;;;;;6.17;3.17;;;32.20;1.00;;;;;;5066768;28;20181;-72
2022/06/11 08:52:04;;;;;;;3.63;3.00;;;32.90;1.00;;;;;;5068430;28;20205;-71
2022/06/11 08:54:35;;;;;;;4.47;3.10;;;32.80;1.00;;;;;;5062849;28;20162;-71
2022/06/11 08:57:26;;;;;;;11.63;3.53;;;31.10;1.00;;;;;;5050556;28;20674;-69
2022/06/11 09:00:00;;;;;;;5.57;3.60;;;30.30;1.00;;;;;;5068977;28;20489;-73
2022/06/11 09:02:25;;;;;;;4.63;3.30;;;31.00;1.00;;;;;;5059156;28;20405;-72
2022/06/11 09:05:03;;;;;;;4.17;3.67;;;32.90;1.00;;;;;;5067687;28;20738;-72
2022/06/11 09:07:52;;;;;;;4.73;3.60;;;32.30;1.00;;;;;;5062296;28;20184;-71
2022/06/11 09:10:33;;;;;;;4.90;4.27;;;33.10;1.00;;;;;;5066794;28;20239;-70
2022/06/11 09:13:31;;;;;;;4.53;3.23;;;32.90;1.00;;;;;;5068319;28;20242;-71
2022/06/11 09:16:05;;;;;;;4.40;2.73;;;32.00;1.00;;;;;;5021127;28;20506;-71
2022/06/11 09:19:05;;;;;;;3.00;2.70;;;32.30;1.00;;;;;;5062184;28;20224;-71
2022/06/11 09:22:22;;;;;;;4.30;3.70;;;32.90;1.00;;;;;;5068910;28;20255;-71
2022/06/11 09:24:53;;;;;;;3.03;2.73;;;33.00;1.00;;;;;;5041758;28;20188;-71
2022/06/11 09:27:23;;;;;;;2.53;2.17;;;33.50;1.00;;;;;;5049371;28;20189;-71
2022/06/11 09:30:05;;;;;;;3.83;1.93;;;33.50;1.00;;;;;;5067867;28;20695;-70
2022/06/11 09:32:35;;;;;;;2.77;1.50;;;34.30;1.00;;;;;;5048465;28;20173;-71
2022/06/11 09:35:06;;;;;;;7.78;2.47;;;35.80;1.00;;;;;;5071821;28;20171;-72
2022/06/11 09:37:32;;;;;;;2.97;2.08;;;36.80;1.00;;;;;;5071090;28;20186;-71
2022/06/11 09:40:19;;;;;;;3.15;2.15;;;36.70;1.00;;;;;;5052581;28;20194;-71
2022/06/11 09:43:18;;;;;;;10.07;2.70;;;36.90;1.00;;;;;;5051092;28;20227;-72
2022/06/11 09:46:17;;;;;;;5.35;2.65;;;34.80;1.00;;;;;;5067984;28;20522;-72
2022/06/11 09:48:46;;;;;;;3.25;2.30;;;36.10;1.00;;;;;;5071740;28;20165;-71
2022/06/11 09:51:36;;;;;;;3.20;2.10;;;36.90;1.00;;;;;;5071009;28;20288;-73
2022/06/11 09:54:21;;;;;;;5.47;2.53;;;36.00;1.00;;;;;;5071976;28;20587;-73
2022/06/11 09:57:09;;;;;;;5.63;2.28;;;37.30;1.00;;;;;;5072026;28;20190;-74
2022/06/11 09:59:40;;;;;;;5.53;1.95;;;38.60;1.00;;;;;;5065648;28;20188;-73
2022/06/11 10:02:06;;;;;;;3.28;2.10;;;36.70;1.00;;;;;;5071823;28;20215;-75
2022/06/11 10:04:35;;;;;;;3.67;2.20;;;32.60;1.00;;;;;;5072688;28;20520;-74
2022/06/11 10:07:07;;;;;;;3.33;2.00;;;32.10;1.00;;;;;;5053373;28;20253;-74
2022/06/11 10:09:38;;;;;;;5.50;2.30;;;32.10;1.00;;;;;;5067408;28;20158;-74
2022/06/11 10:12:18;;;;;;;2.70;2.20;;;33.80;1.00;;;;;;5072815;28;20170;-77
2022/06/11 10:15:10;;;;;;;2.97;1.83;;;34.90;1.00;;;;;;5074490;28;20193;-75
2022/06/11 10:18:10;;;;;;;3.53;1.98;;;33.40;1.00;;;;;;5068533;28;20194;-74
2022/06/11 10:20:41;;;;;;;1.73;1.58;;;33.20;1.00;;;;;;5075157;28;20197;-74
2022/06/11 10:23:31;;;;;;;2.63;1.90;;;34.00;1.00;;;;;;5072692;28;20166;-74
2022/06/11 10:26:06;;;;;;;5.22;2.15;;;35.50;1.00;;;;;;5072440;28;20158;-71
2022/06/11 10:28:43;;;;;;;3.78;1.67;;;36.20;1.00;;;;;;5065773;28;20622;-72
2022/06/11 10:31:16;;;;;;;2.00;1.73;;;36.20;1.00;;;;;;5074609;28;20712;-74
2022/06/11 10:34:08;;;;;;;6.57;1.92;;;34.40;1.00;;;;;;5040230;28;20221;-73
2022/06/11 10:36:41;;;;;;;4.88;2.22;;;34.30;1.00;;;;;;5028898;28;20179;-73
2022/06/11 10:39:28;;;;;;;3.60;1.52;;;33.80;1.00;;;;;;5045773;28;20205;-73
2022/06/11 10:42:02;;;;;;;2.42;2.10;;;32.80;1.00;;;;;;5046650;28;20190;-73
2022/06/11 10:44:41;;;;;;;8.13;2.30;;;34.50;1.00;;;;;;5051167;28;20169;-72
2022/06/11 10:47:12;;;;;;;3.40;2.47;;;35.70;1.00;;;;;;5041202;28;20340;-73
2022/06/11 10:49:38;;;;;;;6.38;2.05;;;36.70;1.00;;;;;;5041647;28;20229;-71
2022/06/11 10:52:18;;;;;;;5.20;2.47;;;37.50;1.00;;;;;;5044523;28;20206;-70
2022/06/11 11:24:35;;;;;;;8.55;2.50;;;33.70;1.00;;;;;;5105490;27;20541;-70
2022/06/11 11:27:27;;;;;;;6.13;2.67;;;32.90;1.00;;;;;;5105258;28;20179;-70
2022/06/11 11:29:54;;;;;;;2.78;2.05;;;32.30;1.00;;;;;;5098441;28;20238;-70
2022/06/11 11:32:35;;;;;;;4.03;2.03;;;31.80;1.00;;;;;;5103489;28;20593;-71
2022/06/11 11:35:22;;;;;;;5.22;2.40;;;31.20;1.00;;;;;;5105566;28;20572;-71
2022/06/11 11:38:13;;;;;;;7.73;3.00;;;31.10;1.00;;;;;;5100987;28;20203;-71
2022/06/11 11:40:54;;;;;;;7.30;2.80;;;30.80;1.00;;;;;;5100359;28;20206;-71
2022/06/11 11:43:22;;;;;;;9.37;2.40;;;30.60;1.00;;;;;;5105509;28;20245;-71
2022/06/11 11:45:54;;;;;;;6.03;2.40;;;30.30;1.00;;;;;;5105427;28;20176;-71
2022/06/11 11:48:37;;;;;;;4.53;2.70;;;30.50;1.00;;;;;;5104717;28;20179;-70
2022/06/11 11:51:10;;;;;;;2.60;2.20;;;30.70;1.00;;;;;;5104960;28;20744;-71
2022/06/11 11:53:48;;;;;;;4.03;2.37;;;30.50;1.00;;;;;;5099317;28;20415;-71
2022/06/11 11:56:43;;;;;;;9.73;3.20;;;30.20;1.00;;;;;;5105943;28;20410;-71
2022/06/11 11:59:17;;;;;;;3.20;2.57;;;29.90;1.00;;;;;;5104402;28;20486;-70
2022/06/11 12:01:45;;;;;;;4.10;2.70;;;29.90;1.00;;;;;;5105277;28;20429;-71
2022/06/11 12:04:24;;;;;;;3.30;2.30;;;29.20;1.00;;;;;;5105143;28;20507;-69
2022/06/11 12:07:01;;;;;;;3.50;2.57;;;28.40;1.00;;;;;;5105083;28;20406;-70
2022/06/11 12:09:34;;;;;;;4.03;2.27;;;27.60;1.00;;;;;;5103531;28;20406;-71
2022/06/11 12:12:08;;;;;;;3.10;2.80;;;27.40;1.00;;;;;;5105524;28;20430;-71
2022/06/11 12:14:48;;;;;;;3.83;2.30;;;26.60;1.00;;;;;;5099430;28;20533;-70
2022/06/11 12:17:37;;;;;;;2.90;2.47;;;27.10;1.00;;;;;;5102870;28;20414;-71
2022/06/11 12:20:47;;;;;;;5.00;2.80;;;27.60;1.00;;;;;;5104523;28;20436;-72
2022/06/11 12:23:42;;;;;;;3.03;2.57;;;27.20;1.00;;;;;;5103472;28;21222;-71
2022/06/11 12:26:20;;;;;;;3.43;2.47;;;26.60;1.00;;;;;;5098567;28;20418;-73
2022/06/11 12:29:16;;;;;;;4.13;2.70;;;26.90;1.00;;;;;;5083867;28;20426;-72
2022/06/11 12:31:42;;;;;;;10.07;2.40;;;27.70;1.00;;;;;;5079054;28;20431;-71
2022/06/11 12:34:17;;;;;;;4.30;2.77;;;28.40;1.00;;;;;;5095496;28;20461;-70
2022/06/11 12:36:53;;;;;;;19.27;4.30;;;28.60;1.00;;;;;;5090805;28;20903;-70
2022/06/11 12:39:47;;;;;;;11.93;3.20;;;28.30;1.00;;;;;;5087556;28;20434;-69
2022/06/11 12:42:34;;;;;;;22.13;4.40;;;28.00;1.00;;;;;;5089540;28;20409;-69
2022/06/11 12:45:18;;;;;;;3.63;2.80;;;28.20;1.00;;;;;;5089957;28;20414;-69
2022/06/11 12:48:02;;;;;;;5.50;2.70;;;28.10;1.00;;;;;;5084831;28;20415;-69
2022/06/11 12:50:50;;;;;;;5.23;2.77;;;28.20;1.00;;;;;;5089633;28;20580;-69
2022/06/11 12:53:20;;;;;;;2.90;2.60;;;28.60;1.00;;;;;;5090515;28;20404;-69
2022/06/11 12:56:08;;;;;;;3.17;2.50;;;28.90;1.00;;;;;;5090461;28;20406;-69
2022/06/11 12:58:58;;;;;;;23.63;3.80;;;28.80;1.00;;;;;;5090236;28;20434;-69
2022/06/11 13:01:33;;;;;;;4.13;2.27;;;27.30;1.00;;;;;;5090545;28;20500;-69
2022/06/11 13:04:19;;;;;;;4.20;2.00;;;27.20;1.00;;;;;;5091373;28;20507;-68
2022/06/11 13:06:53;;;;;;;9.53;3.70;;;27.60;1.00;;;;;;5090809;28;20399;-68
2022/06/11 13:09:42;;;;;;;2.67;2.00;;;27.70;1.00;;;;;;5090306;28;20392;-69
2022/06/11 13:12:30;;;;;;;27.43;4.07;;;27.90;1.00;;;;;;5090998;28;20419;-69
2022/06/11 13:15:25;;;;;;;8.67;2.80;;;27.80;1.00;;;;;;5091006;28;20754;-68
2022/06/11 13:18:09;;;;;;;7.40;2.50;;;28.10;1.00;;;;;;5089062;28;20407;-69
2022/06/11 13:20:56;;;;;;;7.90;2.33;;;28.20;1.00;;;;;;5090005;28;20514;-69
2022/06/11 13:23:27;;;;;;;2.67;2.00;;;28.40;1.00;;;;;;5090044;28;20546;-68
2022/06/11 13:25:59;;;;;;;15.83;2.90;;;28.50;1.00;;;;;;5090496;28;20605;-69
2022/06/11 13:28:25;;;;;;;5.17;2.50;;;28.20;1.00;;;;;;5089849;28;20403;-69
2022/06/11 13:30:53;;;;;;;3.90;1.97;;;28.20;1.00;;;;;;5089898;28;20488;-68
2022/06/11 13:33:22;;;;;;;4.10;2.60;;;27.70;1.00;;;;;;5090818;28;20188;-68
2022/06/11 13:36:06;;;;;;;2.67;2.43;;;27.10;1.00;;;;;;5090170;28;20403;-69
2022/06/11 13:38:38;;;;;;;5.63;2.83;;;27.00;1.00;;;;;;5089316;28;20898;-69
2022/06/11 13:41:21;;;;;;;7.03;2.73;;;27.40;1.00;;;;;;5089935;28;20438;-69
2022/06/11 13:43:47;;;;;;;2.20;1.80;;;27.60;1.00;;;;;;5090387;28;20545;-69
2022/06/11 13:46:34;;;;;;;4.60;2.23;;;27.50;1.00;;;;;;5088895;28;20495;-69
2022/06/11 13:49:06;;;;;;;6.43;3.33;;;27.50;1.00;;;;;;5089599;28;20636;-68
2022/06/11 13:51:37;;;;;;;4.83;2.20;;;27.30;1.00;;;;;;5074970;28;20436;-69